createdAt,value
2023-01-29T00:01:06.571Z,92.88
2023-01-29T00:03:35.083Z,110.65
2023-01-29T00:06:06.524Z,98.57
2023-01-29T00:08:39.058Z,88.53
2023-01-29T00:11:09.167Z,109.30
2023-01-29T00:13:40.164Z,111.88
2023-01-29T00:16:08.805Z,102.72
2023-01-29T00:18:42.433Z,90.00
2023-01-29T00:21:11.774Z,90.78
2023-01-29T00:23:44.019Z,111.32
2023-01-29T00:26:12.812Z,100.18
2023-01-29T00:28:48.836Z,94.57
2023-01-29T00:31:19.452Z,109.30
2023-01-29T00:33:48.241Z,89.13
2023-01-29T00:36:18.050Z,90.35
2023-01-29T00:38:54.726Z,94.03
2023-01-29T00:41:44.488Z,86.55
2023-01-29T00:44:30.473Z,80.38
2023-01-29T00:46:58.864Z,91.32
2023-01-29T00:49:27.574Z,98.50
2023-01-29T00:52:09.753Z,87.90
2023-01-29T00:54:39.628Z,76.28
2023-01-29T00:57:07.892Z,78.82
2023-01-29T00:59:36.239Z,54.28
2023-01-29T01:02:23.164Z,55.20
2023-01-29T01:04:53.310Z,64.55
2023-01-29T01:07:21.704Z,77.00
2023-01-29T01:10:08.925Z,82.40
2023-01-29T01:12:37.163Z,74.10
2023-01-29T01:15:06.049Z,78.97
2023-01-29T01:17:34.791Z,80.50
2023-01-29T01:20:03.656Z,85.80
2023-01-29T01:22:32.591Z,61.92
2023-01-29T01:25:02.375Z,84.68
2023-01-29T01:27:32.290Z,76.55
2023-01-29T01:30:00.628Z,75.13
2023-01-29T01:32:30.054Z,69.57
2023-01-29T01:34:58.560Z,79.13
2023-01-29T01:37:29.154Z,81.80
2023-01-29T01:39:58.038Z,80.95
2023-01-29T01:42:31.397Z,73.13
2023-01-29T01:47:32.774Z,67.25
2023-01-29T01:50:07.851Z,80.68
2023-01-29T01:52:38.070Z,71.13
2023-01-29T01:55:07.480Z,81.68
2023-01-29T01:57:37.815Z,77.50
2023-01-29T02:00:11.496Z,72.57
2023-01-29T02:02:58.231Z,72.28
2023-01-29T02:05:44.298Z,79.03
2023-01-29T02:08:30.331Z,89.97
2023-01-29T02:10:59.735Z,79.82
2023-01-29T02:13:29.678Z,78.22
2023-01-29T02:15:58.117Z,77.05
2023-01-29T02:18:26.687Z,81.80
2023-01-29T02:21:07.547Z,85.68
2023-01-29T02:24:08.902Z,78.78
2023-01-29T02:26:44.891Z,63.97
2023-01-29T02:29:27.328Z,79.50
2023-01-29T02:32:15.258Z,76.13
2023-01-29T02:35:11.439Z,67.35
2023-01-29T02:37:43.887Z,77.22
2023-01-29T02:40:17.449Z,80.77
2023-01-29T02:42:50.938Z,68.32
2023-01-29T02:47:51.307Z,79.82
2023-01-29T02:50:22.601Z,77.50
2023-01-29T02:52:57.039Z,72.75
2023-01-29T02:55:32.012Z,76.68
2023-01-29T02:58:05.379Z,79.93
2023-01-29T03:03:13.924Z,65.45
2023-01-29T03:05:53.527Z,67.13
2023-01-29T03:08:29.787Z,84.57
2023-01-29T03:11:00.387Z,67.82
2023-01-29T03:13:36.667Z,81.80
2023-01-29T03:16:09.056Z,77.35
2023-01-29T03:18:46.118Z,58.13
2023-01-29T03:21:34.870Z,69.72
2023-01-29T03:24:20.593Z,72.75
2023-01-29T03:27:06.486Z,78.88
2023-01-29T03:29:53.976Z,78.95
2023-01-29T03:32:26.733Z,86.18
2023-01-29T03:35:00.054Z,60.30
2023-01-29T03:37:34.618Z,71.97
2023-01-29T03:40:03.589Z,53.20
2023-01-29T03:42:45.674Z,63.13
2023-01-29T03:45:17.717Z,63.22
2023-01-29T03:47:50.549Z,29.20
2023-01-29T03:50:32.655Z,51.90
2023-01-29T03:53:04.243Z,41.65
2023-01-29T03:55:36.849Z,41.85
2023-01-29T03:58:09.551Z,36.53
2023-01-29T04:00:41.796Z,27.83
2023-01-29T04:03:14.607Z,38.08
2023-01-29T04:05:49.078Z,31.90
2023-01-29T04:08:22.213Z,25.85
2023-01-29T04:10:51.401Z,31.67
2023-01-29T04:13:21.416Z,38.08
2023-01-29T04:15:53.506Z,38.80
2023-01-29T04:18:25.642Z,25.13
2023-01-29T04:20:54.059Z,35.95
2023-01-29T04:23:24.296Z,29.85
2023-01-29T04:25:58.063Z,37.38
2023-01-29T04:28:35.232Z,23.25
2023-01-29T04:31:07.774Z,30.38
2023-01-29T04:33:43.213Z,32.83
2023-01-29T04:36:19.959Z,35.75
2023-01-29T04:38:55.449Z,27.73
2023-01-29T04:41:32.218Z,37.63
2023-01-29T04:44:07.336Z,39.83
2023-01-29T04:46:39.059Z,36.10
2023-01-29T04:49:16.018Z,38.90
2023-01-29T04:51:51.011Z,37.13
2023-01-29T04:54:25.822Z,32.80
2023-01-29T04:56:57.772Z,26.52
2023-01-29T04:59:29.282Z,31.20
2023-01-29T05:02:02.930Z,29.77
2023-01-29T05:04:34.086Z,27.23
2023-01-29T05:07:04.787Z,28.73
2023-01-29T05:09:34.599Z,19.85
2023-01-29T05:12:03.910Z,27.60
2023-01-29T05:14:32.754Z,27.52
2023-01-29T05:17:04.058Z,30.70
2023-01-29T05:19:33.855Z,35.53
2023-01-29T05:22:03.927Z,24.92
2023-01-29T05:24:32.343Z,25.25
2023-01-29T05:27:18.374Z,22.27
2023-01-29T05:29:47.472Z,12.80
2023-01-29T05:32:16.638Z,25.08
2023-01-29T05:34:46.969Z,23.00
2023-01-29T05:37:17.564Z,25.27
2023-01-29T05:39:49.918Z,25.92
2023-01-29T05:42:20.114Z,20.37
2023-01-29T05:44:50.456Z,18.92
2023-01-29T05:47:20.725Z,22.77
2023-01-29T05:49:50.625Z,19.77
2023-01-29T05:52:18.875Z,17.80
2023-01-29T05:54:47.687Z,19.25
2023-01-29T05:57:16.664Z,19.33
2023-01-29T05:59:44.880Z,11.98
2023-01-29T06:02:13.248Z,18.75
2023-01-29T06:04:44.475Z,15.43
2023-01-29T06:07:15.948Z,22.08
2023-01-29T06:09:44.276Z,15.25
2023-01-29T06:12:14.439Z,21.77
2023-01-29T06:14:46.468Z,15.50
2023-01-29T06:17:15.238Z,17.92
2023-01-29T06:19:43.626Z,15.35
2023-01-29T06:22:12.000Z,19.65
2023-01-29T06:24:41.663Z,22.80
2023-01-29T06:27:10.031Z,13.48
2023-01-29T06:29:38.457Z,21.83
2023-01-29T06:32:07.092Z,15.00
2023-01-29T06:34:35.418Z,13.50
2023-01-29T06:37:03.797Z,19.83
2023-01-29T06:39:36.951Z,18.42
2023-01-29T06:42:10.249Z,16.23
2023-01-29T06:44:39.498Z,24.83
2023-01-29T06:47:09.750Z,25.25
2023-01-29T06:49:39.603Z,15.45
2023-01-29T06:52:07.850Z,38.05
2023-01-29T06:54:36.225Z,30.42
2023-01-29T06:57:04.680Z,42.42
2023-01-29T06:59:34.845Z,37.45
2023-01-29T07:02:03.344Z,52.10
2023-01-29T07:04:31.863Z,59.40
2023-01-29T07:07:00.907Z,43.33
2023-01-29T07:09:29.361Z,30.48
2023-01-29T07:11:57.735Z,51.40
2023-01-29T07:14:26.017Z,50.47
2023-01-29T07:16:56.418Z,57.08
2023-01-29T07:19:27.662Z,45.13
2023-01-29T07:21:58.372Z,53.42
2023-01-29T07:24:26.737Z,54.60
2023-01-29T07:26:57.569Z,50.17
2023-01-29T07:29:26.040Z,59.85
2023-01-29T07:31:57.722Z,58.67
2023-01-29T07:34:28.173Z,51.80
2023-01-29T07:37:01.163Z,27.45
2023-01-29T07:39:31.370Z,65.25
2023-01-29T07:41:59.720Z,48.30
2023-01-29T07:44:28.182Z,51.30
2023-01-29T07:47:01.568Z,62.53
2023-01-29T07:51:57.884Z,39.67
2023-01-29T07:54:26.358Z,38.42
2023-01-29T07:56:54.613Z,52.15
2023-01-29T07:59:22.943Z,64.45
2023-01-29T08:01:51.552Z,56.95
2023-01-29T08:04:21.977Z,26.38
2023-01-29T08:06:50.371Z,59.67
2023-01-29T08:09:18.848Z,27.17
2023-01-29T08:11:47.086Z,54.22
2023-01-29T08:14:15.339Z,46.95
2023-01-29T08:16:43.755Z,49.72
2023-01-29T08:19:13.102Z,30.05
2023-01-29T08:21:45.746Z,69.60
2023-01-29T08:24:14.027Z,58.25
2023-01-29T08:26:42.362Z,64.20
2023-01-29T08:29:10.706Z,48.00
2023-01-29T08:31:39.114Z,54.28
2023-01-29T08:34:07.471Z,67.57
2023-01-29T08:36:36.414Z,71.88
2023-01-29T08:39:06.108Z,50.08
2023-01-29T08:41:34.454Z,84.20
2023-01-29T08:44:04.696Z,71.40
2023-01-29T08:46:33.457Z,63.78
2023-01-29T08:49:05.067Z,39.08
2023-01-29T08:51:34.111Z,44.05
2023-01-29T08:54:02.370Z,48.50
2023-01-29T08:56:34.079Z,34.63
2023-01-29T08:59:05.042Z,49.10
2023-01-29T09:01:36.234Z,42.97
2023-01-29T09:04:04.515Z,44.90
2023-01-29T09:06:32.863Z,38.83
2023-01-29T09:09:01.318Z,36.30
2023-01-29T09:11:29.760Z,43.67
2023-01-29T09:14:01.153Z,40.47
2023-01-29T09:16:31.578Z,39.10
2023-01-29T09:19:02.695Z,37.22
2023-01-29T09:21:34.757Z,42.15
2023-01-29T09:24:03.069Z,42.78
2023-01-29T09:26:31.416Z,32.63
2023-01-29T09:29:01.099Z,37.72
2023-01-29T09:31:29.548Z,34.53
2023-01-29T09:33:57.874Z,35.47
2023-01-29T09:36:26.481Z,36.97
2023-01-29T09:38:54.837Z,36.45
2023-01-29T09:41:35.279Z,28.65
2023-01-29T09:44:08.322Z,28.77
2023-01-29T09:46:42.479Z,29.42
2023-01-29T09:49:20.111Z,25.60
2023-01-29T09:51:51.866Z,34.38
2023-01-29T09:54:25.108Z,19.52
2023-01-29T09:56:56.969Z,22.98
2023-01-29T09:59:28.704Z,35.65
2023-01-29T10:02:07.471Z,33.90
2023-01-29T10:05:26.487Z,33.20
2023-01-29T10:08:22.016Z,21.35
2023-01-29T10:10:51.517Z,30.90
2023-01-29T10:13:30.573Z,33.80
2023-01-29T10:16:12.320Z,26.83
2023-01-29T10:18:55.457Z,25.95
2023-01-29T10:21:37.846Z,29.88
2023-01-29T10:24:14.793Z,29.65
2023-01-29T10:26:43.211Z,29.90
2023-01-29T10:29:18.844Z,33.53
2023-01-29T10:31:52.538Z,16.52
2023-01-29T10:34:26.647Z,35.17
2023-01-29T10:36:56.511Z,30.77
2023-01-29T10:39:26.692Z,28.65
2023-01-29T10:42:03.414Z,35.22
2023-01-29T10:44:46.100Z,25.02
2023-01-29T10:47:30.376Z,38.27
2023-01-29T10:50:11.983Z,20.80
2023-01-29T10:52:47.504Z,18.75
2023-01-29T10:55:27.738Z,32.75
2023-01-29T10:58:04.129Z,18.40
2023-01-29T11:00:36.403Z,25.55
2023-01-29T11:03:27.122Z,19.25
2023-01-29T11:06:11.788Z,25.90
2023-01-29T11:08:44.274Z,21.65
2023-01-29T11:11:15.998Z,16.33
2023-01-29T11:13:47.164Z,22.23
2023-01-29T11:16:15.740Z,17.48
2023-01-29T11:18:57.991Z,10.98
2023-01-29T11:21:29.071Z,11.40
2023-01-29T11:24:17.110Z,23.83
2023-01-29T11:26:50.428Z,19.80
2023-01-29T11:29:33.876Z,10.40
2023-01-29T11:32:03.850Z,10.38
2023-01-29T11:34:36.294Z,24.00
2023-01-29T11:37:16.527Z,33.17
2023-01-29T11:39:47.408Z,23.60
2023-01-29T11:42:21.223Z,19.33
2023-01-29T11:44:49.569Z,19.90
2023-01-29T11:47:20.867Z,17.17
2023-01-29T11:49:52.238Z,26.38
2023-01-29T11:52:22.300Z,21.63
2023-01-29T11:54:53.494Z,24.73
2023-01-29T11:57:29.682Z,28.70
2023-01-29T12:00:01.862Z,27.02
2023-01-29T12:02:36.253Z,31.45
2023-01-29T12:05:14.743Z,20.35
2023-01-29T12:07:43.818Z,12.02
2023-01-29T12:10:45.079Z,31.33
2023-01-29T12:13:27.947Z,16.20
2023-01-29T12:16:15.941Z,21.15
2023-01-29T12:18:50.080Z,7.43
2023-01-29T12:21:25.829Z,24.67
2023-01-29T12:24:00.807Z,29.48
2023-01-29T12:26:33.039Z,26.38
2023-01-29T12:29:35.633Z,29.85
2023-01-29T12:32:13.770Z,23.52
2023-01-29T12:34:46.834Z,28.73
2023-01-29T12:37:23.752Z,26.30
2023-01-29T12:39:53.278Z,24.38
2023-01-29T12:42:23.378Z,24.38
2023-01-29T12:44:54.992Z,12.15
2023-01-29T12:47:27.651Z,12.73
2023-01-29T12:49:58.545Z,26.60
2023-01-29T12:52:38.486Z,18.05
2023-01-29T12:55:13.789Z,17.38
2023-01-29T12:57:45.254Z,22.23
2023-01-29T13:00:19.186Z,28.83
2023-01-29T13:02:51.375Z,7.15
2023-01-29T13:05:24.559Z,24.08
2023-01-29T13:07:59.882Z,21.88
2023-01-29T13:10:36.701Z,18.83
2023-01-29T13:13:13.419Z,15.20
2023-01-29T13:15:44.225Z,7.60
2023-01-29T13:18:32.411Z,16.67
2023-01-29T13:21:01.921Z,18.33
2023-01-29T13:23:35.409Z,12.43
2023-01-29T13:26:03.995Z,16.45
2023-01-29T13:28:32.672Z,13.95
2023-01-29T13:31:16.803Z,8.10
2023-01-29T13:33:45.590Z,10.13
2023-01-29T13:36:19.494Z,14.48
2023-01-29T13:38:57.240Z,12.60
2023-01-29T13:41:36.522Z,17.52
2023-01-29T13:44:07.537Z,11.32
2023-01-29T13:46:40.049Z,17.17
2023-01-29T13:49:25.546Z,7.68
2023-01-29T13:51:54.008Z,19.17
2023-01-29T13:54:27.204Z,16.85
2023-01-29T13:57:00.735Z,9.32
2023-01-29T14:02:25.681Z,7.57
2023-01-29T14:05:33.935Z,11.00
2023-01-29T14:08:03.142Z,22.15
2023-01-29T14:10:33.907Z,16.90
2023-01-29T14:13:34.754Z,16.90
2023-01-29T14:16:30.325Z,5.85
2023-01-29T14:19:00.838Z,17.65
2023-01-29T14:21:32.117Z,11.70
2023-01-29T14:24:09.622Z,14.93
2023-01-29T14:26:45.879Z,18.42
2023-01-29T14:29:33.841Z,19.33
2023-01-29T14:32:16.026Z,24.77
2023-01-29T14:34:47.856Z,17.65
2023-01-29T14:37:32.459Z,14.15
2023-01-29T14:40:22.380Z,12.52
2023-01-29T14:43:01.930Z,22.17
2023-01-29T14:45:31.413Z,13.07
2023-01-29T14:48:22.067Z,17.95
2023-01-29T14:50:53.366Z,18.55
2023-01-29T14:53:25.575Z,16.83
2023-01-29T14:56:00.631Z,20.05
2023-01-29T14:58:39.284Z,21.17
2023-01-29T15:01:13.840Z,16.70
2023-01-29T15:03:45.622Z,20.20
2023-01-29T15:06:19.723Z,17.80
2023-01-29T15:08:55.381Z,16.15
2023-01-29T15:11:38.281Z,14.93
2023-01-29T15:14:24.217Z,20.13
2023-01-29T15:17:04.069Z,23.60
2023-01-29T15:19:37.151Z,23.60
2023-01-29T15:22:10.939Z,20.55
2023-01-29T15:24:40.591Z,22.20
2023-01-29T15:27:13.961Z,16.48
2023-01-29T15:32:20.498Z,22.75
2023-01-29T15:34:49.914Z,18.58
2023-01-29T15:37:30.248Z,22.95
2023-01-29T15:39:58.923Z,18.58
2023-01-29T15:42:30.551Z,13.57
2023-01-29T15:45:00.324Z,11.57
2023-01-29T15:47:32.489Z,17.67
2023-01-29T15:50:01.880Z,12.75
2023-01-29T15:52:36.526Z,26.23
2023-01-29T15:55:06.946Z,23.27
2023-01-29T15:57:40.665Z,12.07
2023-01-29T16:00:23.109Z,7.50
2023-01-29T16:02:51.648Z,23.33
2023-01-29T16:05:22.761Z,16.33
2023-01-29T16:07:52.221Z,12.05
2023-01-29T16:10:22.533Z,21.70
2023-01-29T16:12:52.645Z,31.20
2023-01-29T16:15:32.373Z,28.23
2023-01-29T16:18:01.650Z,21.63
2023-01-29T16:20:36.651Z,22.00
2023-01-29T16:23:05.412Z,18.50
2023-01-29T16:25:35.597Z,14.77
2023-01-29T16:28:06.867Z,25.52
2023-01-29T16:30:36.945Z,23.73
2023-01-29T16:33:06.625Z,30.20
2023-01-29T16:35:35.142Z,24.58
2023-01-29T16:38:07.970Z,15.93
2023-01-29T16:40:38.057Z,15.82
2023-01-29T16:43:49.111Z,23.30
2023-01-29T16:46:26.672Z,25.20
2023-01-29T16:48:55.577Z,21.67
2023-01-29T16:51:27.463Z,19.42
2023-01-29T16:54:11.078Z,20.42
2023-01-29T16:56:41.403Z,16.65
2023-01-29T16:59:18.199Z,24.65
2023-01-29T17:01:49.524Z,13.48
2023-01-29T17:04:20.168Z,24.27
2023-01-29T17:06:50.607Z,11.98
2023-01-29T17:09:25.962Z,22.73
2023-01-29T17:11:59.344Z,23.33
2023-01-29T17:17:04.032Z,31.88
2023-01-29T17:19:32.939Z,21.02
2023-01-29T17:22:05.705Z,25.92
2023-01-29T17:24:34.433Z,13.48
2023-01-29T17:27:03.234Z,27.25
2023-01-29T17:29:32.867Z,6.75
2023-01-29T17:32:02.721Z,16.20
2023-01-29T17:34:31.427Z,21.60
2023-01-29T17:37:00.107Z,22.30
2023-01-29T17:39:29.809Z,20.67
2023-01-29T17:42:01.497Z,21.42
2023-01-29T17:44:30.184Z,22.70
2023-01-29T17:47:02.751Z,21.38
2023-01-29T17:49:34.146Z,18.80
2023-01-29T17:52:04.532Z,20.88
2023-01-29T17:54:33.071Z,15.95
2023-01-29T17:57:01.802Z,16.45
2023-01-29T17:59:34.014Z,20.80
2023-01-29T18:02:04.033Z,9.35
2023-01-29T18:04:32.516Z,24.55
2023-01-29T18:07:00.957Z,14.23
2023-01-29T18:09:31.799Z,12.40
2023-01-29T18:12:03.667Z,18.42
2023-01-29T18:14:32.624Z,15.15
2023-01-29T18:17:01.387Z,21.52
2023-01-29T18:19:32.276Z,24.15
2023-01-29T18:22:01.109Z,20.98
2023-01-29T18:24:31.667Z,18.98
2023-01-29T18:27:00.237Z,18.33
2023-01-29T18:29:30.508Z,21.77
2023-01-29T18:31:59.107Z,18.08
2023-01-29T18:34:27.834Z,26.00
2023-01-29T18:37:01.124Z,17.65
2023-01-29T18:42:00.922Z,26.08
2023-01-29T18:44:29.971Z,22.98
2023-01-29T18:46:58.359Z,22.38
2023-01-29T18:49:26.878Z,9.82
2023-01-29T18:51:55.678Z,18.42
2023-01-29T18:54:25.612Z,19.10
2023-01-29T18:57:13.264Z,11.85
2023-01-29T18:59:43.108Z,21.83
2023-01-29T19:02:15.295Z,9.57
2023-01-29T19:04:44.095Z,20.40
2023-01-29T19:07:13.818Z,18.27
2023-01-29T19:09:45.889Z,19.67
2023-01-29T19:12:17.101Z,23.65
2023-01-29T19:14:46.047Z,22.50
2023-01-29T19:17:14.732Z,14.75
2023-01-29T19:19:43.327Z,12.23
2023-01-29T19:22:11.997Z,24.92
2023-01-29T19:24:41.192Z,16.58
2023-01-29T19:27:11.796Z,20.15
2023-01-29T19:29:40.645Z,6.40
2023-01-29T19:32:13.097Z,5.18
2023-01-29T19:34:41.587Z,20.55
2023-01-29T19:37:16.022Z,20.67
2023-01-29T19:39:44.637Z,18.08
2023-01-29T19:42:14.464Z,6.90
2023-01-29T19:44:45.590Z,18.90
2023-01-29T19:47:14.109Z,18.10
2023-01-29T19:49:44.956Z,21.50
2023-01-29T19:52:49.742Z,21.58
2023-01-29T19:55:19.700Z,12.57
2023-01-29T19:57:49.977Z,19.02
2023-01-29T20:00:19.800Z,14.15
2023-01-29T20:02:48.230Z,23.70
2023-01-29T20:05:18.697Z,21.63
2023-01-29T20:07:47.611Z,20.58
2023-01-29T20:10:18.266Z,20.48
2023-01-29T20:12:47.718Z,16.40
2023-01-29T20:15:18.387Z,22.05
2023-01-29T20:17:46.982Z,22.05
2023-01-29T20:20:16.979Z,22.08
2023-01-29T20:22:46.386Z,20.75
2023-01-29T20:25:14.942Z,26.80
2023-01-29T20:27:43.763Z,10.40
2023-01-29T20:30:13.169Z,19.65
2023-01-29T20:32:42.965Z,22.00
2023-01-29T20:35:11.551Z,17.25
2023-01-29T20:37:39.774Z,14.48
2023-01-29T20:40:09.007Z,26.52
2023-01-29T20:42:37.364Z,23.17
2023-01-29T20:45:06.430Z,21.70
2023-01-29T20:47:35.364Z,21.95
2023-01-29T20:50:08.715Z,18.13
2023-01-29T20:55:06.007Z,18.20
2023-01-29T20:57:34.477Z,19.67
2023-01-29T21:00:02.808Z,15.40
2023-01-29T21:02:33.599Z,16.77
2023-01-29T21:05:02.237Z,4.55
2023-01-29T21:07:33.502Z,20.73
2023-01-29T21:10:03.401Z,22.95
2023-01-29T21:12:32.134Z,17.80
2023-01-29T21:15:00.434Z,14.32
2023-01-29T21:17:28.767Z,15.80
2023-01-29T21:19:57.356Z,18.48
2023-01-29T21:22:25.654Z,9.27
2023-01-29T21:24:55.360Z,18.63
2023-01-29T21:27:23.630Z,17.17
2023-01-29T21:29:51.964Z,12.15
2023-01-29T21:32:20.403Z,21.02
2023-01-29T21:34:49.398Z,20.65
2023-01-29T21:37:18.864Z,20.33
2023-01-29T21:39:47.197Z,18.33
2023-01-29T21:42:34.177Z,23.70
2023-01-29T21:45:02.630Z,8.80
2023-01-29T21:47:33.123Z,15.80
2023-01-29T21:50:02.508Z,8.80
2023-01-29T21:52:30.994Z,20.10
2023-01-29T21:54:59.360Z,17.63
2023-01-29T21:57:29.105Z,19.50
2023-01-29T21:59:57.860Z,18.55
2023-01-29T22:02:27.703Z,15.57
2023-01-29T22:05:08.711Z,17.95
2023-01-29T22:07:45.738Z,16.48
2023-01-29T22:10:14.604Z,17.45
2023-01-29T22:12:45.034Z,20.88
2023-01-29T22:15:14.174Z,20.08
2023-01-29T22:17:42.843Z,5.85
2023-01-29T22:20:13.882Z,13.55
2023-01-29T22:22:42.289Z,11.50
2023-01-29T22:25:11.751Z,23.27
2023-01-29T22:27:41.509Z,25.55
2023-01-29T22:30:13.088Z,17.80
2023-01-29T22:32:42.053Z,18.77
2023-01-29T22:35:11.285Z,19.75
2023-01-29T22:37:39.623Z,16.80
2023-01-29T22:40:09.114Z,17.52
2023-01-29T22:42:37.395Z,17.98
2023-01-29T22:45:06.276Z,14.88
2023-01-29T22:47:35.953Z,22.58
2023-01-29T22:50:04.556Z,14.95
2023-01-29T22:52:38.673Z,16.67
2023-01-29T22:55:09.663Z,23.52
2023-01-29T22:57:38.055Z,24.73
2023-01-29T23:00:09.885Z,20.60
2023-01-29T23:02:42.498Z,21.02
2023-01-29T23:05:11.171Z,14.60
2023-01-29T23:07:39.522Z,19.58
2023-01-29T23:10:08.971Z,24.85
2023-01-29T23:12:37.343Z,14.90
2023-01-29T23:15:06.176Z,18.05
2023-01-29T23:17:34.604Z,19.67
2023-01-29T23:20:04.440Z,18.10
2023-01-29T23:22:32.831Z,28.10
2023-01-29T23:25:02.934Z,21.45
2023-01-29T23:27:31.098Z,12.15
2023-01-29T23:29:59.383Z,14.77
2023-01-29T23:32:27.779Z,9.60
2023-01-29T23:34:56.116Z,31.20
2023-01-29T23:37:25.792Z,15.93
2023-01-29T23:39:54.107Z,17.63
2023-01-29T23:42:22.579Z,22.20
2023-01-29T23:44:50.869Z,17.30
2023-01-29T23:47:19.137Z,25.13
2023-01-29T23:49:47.610Z,11.20
2023-01-29T23:52:15.892Z,10.50
2023-01-29T23:54:45.542Z,20.73
2023-01-29T23:57:14.847Z,20.17
2023-01-29T23:59:43.116Z,18.85
